sensor_id;sensor_type;location;lat;lon;timestamp;pressure;altitude;pressure_sealevel;temperature;humidity
78625;BME280;67944;0.000;0.000;2024-01-07T00:01:24;100241.69;;;19.41;37.74
78625;BME280;67944;0.000;0.000;2024-01-07T00:03:51;100245.13;;;19.41;37.77
78625;BME280;67944;0.000;0.000;2024-01-07T00:06:17;100246.97;;;19.41;37.61
78625;BME280;67944;0.000;0.000;2024-01-07T00:08:42;100251.41;;;19.40;37.55
78625;BME280;67944;0.000;0.000;2024-01-07T00:11:08;100253.06;;;19.41;37.25
78625;BME280;67944;0.000;0.000;2024-01-07T00:13:33;100242.69;;;19.40;37.69
78625;BME280;67944;0.000;0.000;2024-01-07T00:15:59;100245.31;;;19.40;37.53
78625;BME280;67944;0.000;0.000;2024-01-07T00:18:24;100248.78;;;19.40;37.22
78625;BME280;67944;0.000;0.000;2024-01-07T00:20:50;100252.41;;;19.39;38.10
78625;BME280;67944;0.000;0.000;2024-01-07T00:23:15;100253.25;;;19.40;37.23
78625;BME280;67944;0.000;0.000;2024-01-07T00:25:41;100251.59;;;19.39;37.24
78625;BME280;67944;0.000;0.000;2024-01-07T00:28:06;100260.34;;;19.39;37.99
78625;BME280;67944;0.000;0.000;2024-01-07T00:30:32;100256.88;;;19.39;37.43
78625;BME280;67944;0.000;0.000;2024-01-07T00:32:57;100260.50;;;19.38;37.55
78625;BME280;67944;0.000;0.000;2024-01-07T00:35:23;100260.50;;;19.38;37.96
78625;BME280;67944;0.000;0.000;2024-01-07T00:37:48;100259.69;;;19.37;37.37
78625;BME280;67944;0.000;0.000;2024-01-07T00:40:14;100264.97;;;19.37;37.53
78625;BME280;67944;0.000;0.000;2024-01-07T00:42:39;100259.69;;;19.37;37.28
78625;BME280;67944;0.000;0.000;2024-01-07T00:45:05;100265.16;;;19.36;37.61
78625;BME280;67944;0.000;0.000;2024-01-07T00:47:30;100256.41;;;19.35;37.65
78625;BME280;67944;0.000;0.000;2024-01-07T00:49:56;100268.59;;;19.36;37.76
78625;BME280;67944;0.000;0.000;2024-01-07T00:52:21;100267.97;;;19.34;37.92
78625;BME280;67944;0.000;0.000;2024-01-07T00:54:48;100276.69;;;19.35;37.61
78625;BME280;67944;0.000;0.000;2024-01-07T00:57:14;100272.25;;;19.35;37.93
78625;BME280;67944;0.000;0.000;2024-01-07T00:59:39;100281.16;;;19.34;37.43
78625;BME280;67944;0.000;0.000;2024-01-07T01:02:05;100269.78;;;19.34;37.30
78625;BME280;67944;0.000;0.000;2024-01-07T01:04:30;100279.53;;;19.33;37.31
78625;BME280;67944;0.000;0.000;2024-01-07T01:06:56;100271.59;;;19.33;37.70
78625;BME280;67944;0.000;0.000;2024-01-07T01:09:21;100279.53;;;19.33;37.95
78625;BME280;67944;0.000;0.000;2024-01-07T01:11:47;100273.41;;;19.33;37.47
78625;BME280;67944;0.000;0.000;2024-01-07T01:14:12;100282.97;;;19.34;37.44
78625;BME280;67944;0.000;0.000;2024-01-07T01:16:38;100283.16;;;19.32;37.96
78625;BME280;67944;0.000;0.000;2024-01-07T01:19:03;100284.81;;;19.33;37.96
78625;BME280;67944;0.000;0.000;2024-01-07T01:21:29;100290.09;;;19.33;37.20
78625;BME280;67944;0.000;0.000;2024-01-07T01:23:54;100290.09;;;19.33;37.21
78625;BME280;67944;0.000;0.000;2024-01-07T01:26:20;100290.09;;;19.33;38.00
78625;BME280;67944;0.000;0.000;2024-01-07T01:28:45;100289.25;;;19.33;37.20
78625;BME280;67944;0.000;0.000;2024-01-07T01:31:14;100290.25;;;19.32;37.28
78625;BME280;67944;0.000;0.000;2024-01-07T01:33:40;100293.72;;;19.32;37.26
78625;BME280;67944;0.000;0.000;2024-01-07T01:36:06;100298.19;;;19.32;38.16
78625;BME280;67944;0.000;0.000;2024-01-07T01:38:31;100290.25;;;19.32;37.22
78625;BME280;67944;0.000;0.000;2024-01-07T01:40:57;100291.25;;;19.31;37.20
78625;BME280;67944;0.000;0.000;2024-01-07T01:43:31;100299.00;;;19.32;37.42
78625;BME280;67944;0.000;0.000;2024-01-07T01:45:58;100302.63;;;19.31;37.56
78625;BME280;67944;0.000;0.000;2024-01-07T01:48:25;100296.53;;;19.31;37.33
78625;BME280;67944;0.000;0.000;2024-01-07T01:50:52;100296.53;;;19.31;37.30
78625;BME280;67944;0.000;0.000;2024-01-07T01:53:19;100308.91;;;19.30;37.31
78625;BME280;67944;0.000;0.000;2024-01-07T01:55:45;100301.00;;;19.30;37.89
78625;BME280;67944;0.000;0.000;2024-01-07T01:58:13;100307.28;;;19.29;37.96
78625;BME280;67944;0.000;0.000;2024-01-07T02:00:38;100302.97;;;19.28;37.48
78625;BME280;67944;0.000;0.000;2024-01-07T02:03:04;100304.63;;;19.29;37.41
78625;BME280;67944;0.000;0.000;2024-01-07T02:05:29;100307.44;;;19.28;37.81
78625;BME280;67944;0.000;0.000;2024-01-07T02:07:55;100310.91;;;19.28;37.53
78625;BME280;67944;0.000;0.000;2024-01-07T02:10:22;100310.28;;;19.26;37.64
78625;BME280;67944;0.000;0.000;2024-01-07T02:12:47;100315.34;;;19.28;37.81
78625;BME280;67944;0.000;0.000;2024-01-07T02:15:14;100316.38;;;19.27;37.91
78625;BME280;67944;0.000;0.000;2024-01-07T02:17:40;100307.66;;;19.26;38.03
78625;BME280;67944;0.000;0.000;2024-01-07T02:20:06;100311.28;;;19.25;37.14
78625;BME280;67944;0.000;0.000;2024-01-07T02:22:31;100316.56;;;19.25;37.31
78625;BME280;67944;0.000;0.000;2024-01-07T02:24:57;100318.38;;;19.25;37.57
78625;BME280;67944;0.000;0.000;2024-01-07T02:27:22;100313.91;;;19.25;38.04
78625;BME280;67944;0.000;0.000;2024-01-07T02:29:48;100312.28;;;19.24;37.68
78625;BME280;67944;0.000;0.000;2024-01-07T02:32:13;100310.63;;;19.23;37.27
78625;BME280;67944;0.000;0.000;2024-01-07T02:34:38;100313.28;;;19.23;37.72
78625;BME280;67944;0.000;0.000;2024-01-07T02:37:04;100309.81;;;19.23;37.98
78625;BME280;67944;0.000;0.000;2024-01-07T02:39:29;100315.09;;;19.23;37.37
78625;BME280;67944;0.000;0.000;2024-01-07T02:41:55;100313.28;;;19.23;37.93
78625;BME280;67944;0.000;0.000;2024-01-07T02:44:20;100308.97;;;19.22;37.88
78625;BME280;67944;0.000;0.000;2024-01-07T02:46:46;100305.69;;;19.20;37.51
78625;BME280;67944;0.000;0.000;2024-01-07T02:49:12;100309.97;;;19.21;37.95
78625;BME280;67944;0.000;0.000;2024-01-07T02:51:38;100313.44;;;19.22;37.47
78625;BME280;67944;0.000;0.000;2024-01-07T02:54:03;100310.81;;;19.22;37.19
78625;BME280;67944;0.000;0.000;2024-01-07T02:56:29;100305.69;;;19.20;38.07
78625;BME280;67944;0.000;0.000;2024-01-07T02:58:54;100309.97;;;19.21;37.92
78625;BME280;67944;0.000;0.000;2024-01-07T03:01:22;100310.97;;;19.20;38.12
78625;BME280;67944;0.000;0.000;2024-01-07T03:03:48;100319.72;;;19.21;37.82
78625;BME280;67944;0.000;0.000;2024-01-07T03:06:13;100321.53;;;19.20;38.15
78625;BME280;67944;0.000;0.000;2024-01-07T03:08:39;100317.25;;;19.19;37.69
78625;BME280;67944;0.000;0.000;2024-01-07T03:11:05;100319.88;;;19.19;37.46
78625;BME280;67944;0.000;0.000;2024-01-07T03:13:32;100319.88;;;19.19;37.81
78625;BME280;67944;0.000;0.000;2024-01-07T03:15:57;100325.16;;;19.19;38.05
78625;BME280;67944;0.000;0.000;2024-01-07T03:18:23;100315.44;;;19.20;37.31
78625;BME280;67944;0.000;0.000;2024-01-07T03:20:48;100317.25;;;19.19;37.86
78625;BME280;67944;0.000;0.000;2024-01-07T03:23:14;100325.34;;;19.17;37.85
78625;BME280;67944;0.000;0.000;2024-01-07T03:25:39;100327.16;;;19.17;37.94
78625;BME280;67944;0.000;0.000;2024-01-07T03:28:05;100320.22;;;19.16;38.16
78625;BME280;67944;0.000;0.000;2024-01-07T03:30:30;100328.16;;;19.16;37.49
78625;BME280;67944;0.000;0.000;2024-01-07T03:32:56;100332.44;;;19.17;37.81
78625;BME280;67944;0.000;0.000;2024-01-07T03:35:21;100331.78;;;19.15;38.00
78625;BME280;67944;0.000;0.000;2024-01-07T03:37:49;100329.97;;;19.15;37.76
78625;BME280;67944;0.000;0.000;2024-01-07T03:40:14;100328.97;;;19.16;38.12
78625;BME280;67944;0.000;0.000;2024-01-07T03:42:40;100330.78;;;19.16;37.38
78625;BME280;67944;0.000;0.000;2024-01-07T03:45:06;100334.44;;;19.15;37.50
78625;BME280;67944;0.000;0.000;2024-01-07T03:47:31;100328.31;;;19.14;37.23
78625;BME280;67944;0.000;0.000;2024-01-07T03:49:57;100331.97;;;19.13;37.24
78625;BME280;67944;0.000;0.000;2024-01-07T03:52:22;100337.25;;;19.13;37.21
78625;BME280;67944;0.000;0.000;2024-01-07T03:54:48;100336.41;;;19.13;37.86
78625;BME280;67944;0.000;0.000;2024-01-07T03:57:13;100332.94;;;19.12;38.04
78625;BME280;67944;0.000;0.000;2024-01-07T03:59:39;100346.97;;;19.13;37.78
78625;BME280;67944;0.000;0.000;2024-01-07T04:02:04;100340.88;;;19.12;38.13
78625;BME280;67944;0.000;0.000;2024-01-07T04:04:30;100352.25;;;19.13;37.90
78625;BME280;67944;0.000;0.000;2024-01-07T04:06:56;100345.31;;;19.12;37.89
78625;BME280;67944;0.000;0.000;2024-01-07T04:09:21;100348.97;;;19.11;37.23
78625;BME280;67944;0.000;0.000;2024-01-07T04:11:47;100355.06;;;19.11;37.25
78625;BME280;67944;0.000;0.000;2024-01-07T04:14:14;100359.34;;;19.12;37.44
78625;BME280;67944;0.000;0.000;2024-01-07T04:16:40;100360.34;;;19.11;37.22
78625;BME280;67944;0.000;0.000;2024-01-07T04:19:06;100361.16;;;19.12;38.10
78625;BME280;67944;0.000;0.000;2024-01-07T04:21:31;100362.16;;;19.11;37.83
78625;BME280;67944;0.000;0.000;2024-01-07T04:23:57;100367.44;;;19.11;37.45
78625;BME280;67944;0.000;0.000;2024-01-07T04:26:22;100379.00;;;19.10;37.70
78625;BME280;67944;0.000;0.000;2024-01-07T04:28:48;100377.16;;;19.10;37.85
78625;BME280;67944;0.000;0.000;2024-01-07T04:31:13;100371.25;;;19.08;38.13
78625;BME280;67944;0.000;0.000;2024-01-07T04:33:39;100377.34;;;19.09;37.32
78625;BME280;67944;0.000;0.000;2024-01-07T04:36:05;100377.34;;;19.09;37.37
78625;BME280;67944;0.000;0.000;2024-01-07T04:38:30;100381.81;;;19.08;37.53
78625;BME280;67944;0.000;0.000;2024-01-07T04:40:56;100373.88;;;19.08;37.60
78625;BME280;67944;0.000;0.000;2024-01-07T04:43:21;100383.63;;;19.08;37.63
78625;BME280;67944;0.000;0.000;2024-01-07T04:45:47;100383.78;;;19.06;38.01
78625;BME280;67944;0.000;0.000;2024-01-07T04:48:13;100390.72;;;19.07;37.70
78625;BME280;67944;0.000;0.000;2024-01-07T04:50:42;100379.31;;;19.07;37.42
78625;BME280;67944;0.000;0.000;2024-01-07T04:53:08;100381.97;;;19.07;37.80
78625;BME280;67944;0.000;0.000;2024-01-07T04:55:33;100381.16;;;19.06;37.41
78625;BME280;67944;0.000;0.000;2024-01-07T04:57:59;100388.25;;;19.06;37.45
78625;BME280;67944;0.000;0.000;2024-01-07T05:00:25;100387.41;;;19.05;37.49
78625;BME280;67944;0.000;0.000;2024-01-07T05:02:50;100398.78;;;19.06;38.03
78625;BME280;67944;0.000;0.000;2024-01-07T05:05:16;100397.19;;;19.05;37.37
78625;BME280;67944;0.000;0.000;2024-01-07T05:07:41;100388.25;;;19.06;37.45
78625;BME280;67944;0.000;0.000;2024-01-07T05:10:07;100394.53;;;19.05;37.58
78625;BME280;67944;0.000;0.000;2024-01-07T05:12:33;100397.19;;;19.05;37.38
78625;BME280;67944;0.000;0.000;2024-01-07T05:14:58;100391.25;;;19.03;37.86
78625;BME280;67944;0.000;0.000;2024-01-07T05:17:24;100396.53;;;19.03;37.76
78625;BME280;67944;0.000;0.000;2024-01-07T05:19:49;100396.53;;;19.03;38.19
78625;BME280;67944;0.000;0.000;2024-01-07T05:22:15;100411.38;;;19.04;37.90
78625;BME280;67944;0.000;0.000;2024-01-07T05:24:40;100415.00;;;19.03;37.87
78625;BME280;67944;0.000;0.000;2024-01-07T05:27:06;100401.81;;;19.03;37.91
78625;BME280;67944;0.000;0.000;2024-01-07T05:29:32;100412.19;;;19.04;37.86
78625;BME280;67944;0.000;0.000;2024-01-07T05:31:59;100415.00;;;19.03;37.20
78625;BME280;67944;0.000;0.000;2024-01-07T05:34:26;100411.38;;;19.04;37.59
78625;BME280;67944;0.000;0.000;2024-01-07T05:36:52;100415.81;;;19.03;37.23
78625;BME280;67944;0.000;0.000;2024-01-07T05:39:17;100413.34;;;19.02;38.02
78625;BME280;67944;0.000;0.000;2024-01-07T05:41:43;100411.72;;;19.01;37.48
78625;BME280;67944;0.000;0.000;2024-01-07T05:44:08;100411.72;;;19.01;37.73
78625;BME280;67944;0.000;0.000;2024-01-07T05:46:34;100419.63;;;19.01;37.80
78625;BME280;67944;0.000;0.000;2024-01-07T05:48:59;100417.81;;;19.01;37.93
78625;BME280;67944;0.000;0.000;2024-01-07T05:51:25;100422.28;;;19.01;37.57
78625;BME280;67944;0.000;0.000;2024-01-07T05:53:50;100428.53;;;19.00;38.05
78625;BME280;67944;0.000;0.000;2024-01-07T05:56:16;100428.53;;;19.00;37.95
78625;BME280;67944;0.000;0.000;2024-01-07T05:58:41;100438.28;;;18.99;37.46
78625;BME280;67944;0.000;0.000;2024-01-07T06:01:08;100444.53;;;18.98;38.14
78625;BME280;67944;0.000;0.000;2024-01-07T06:03:34;100441.06;;;18.98;37.49
78625;BME280;67944;0.000;0.000;2024-01-07T06:05:59;100442.06;;;18.97;37.85
78625;BME280;67944;0.000;0.000;2024-01-07T06:08:28;100450.81;;;18.97;37.40
78625;BME280;67944;0.000;0.000;2024-01-07T06:10:53;100442.06;;;18.97;37.91
78625;BME280;67944;0.000;0.000;2024-01-07T06:13:19;100453.63;;;18.96;37.52
78625;BME280;67944;0.000;0.000;2024-01-07T06:15:44;100457.06;;;18.96;38.00
78625;BME280;67944;0.000;0.000;2024-01-07T06:18:10;100454.59;;;18.95;37.93
78625;BME280;67944;0.000;0.000;2024-01-07T06:20:36;100452.97;;;18.94;37.94
78625;BME280;67944;0.000;0.000;2024-01-07T06:23:01;100459.06;;;18.94;37.86
78625;BME280;67944;0.000;0.000;2024-01-07T06:25:27;100454.59;;;18.95;37.68
78625;BME280;67944;0.000;0.000;2024-01-07T06:27:52;100463.50;;;18.94;37.42
78625;BME280;67944;0.000;0.000;2024-01-07T06:30:18;100459.88;;;18.95;37.87
78625;BME280;67944;0.000;0.000;2024-01-07T06:32:44;100458.25;;;18.94;37.73
78625;BME280;67944;0.000;0.000;2024-01-07T06:35:11;100468.78;;;18.94;37.17
78625;BME280;67944;0.000;0.000;2024-01-07T06:37:37;100475.88;;;18.93;37.36
78625;BME280;67944;0.000;0.000;2024-01-07T06:40:03;100473.25;;;18.93;37.43
78625;BME280;67944;0.000;0.000;2024-01-07T06:42:28;100474.06;;;18.94;37.55
78625;BME280;67944;0.000;0.000;2024-01-07T06:44:54;100473.25;;;18.93;37.88
78625;BME280;67944;0.000;0.000;2024-01-07T06:47:19;100483.81;;;18.93;37.90
78625;BME280;67944;0.000;0.000;2024-01-07T06:49:45;100489.91;;;18.94;37.45
78625;BME280;67944;0.000;0.000;2024-01-07T06:52:10;100495.19;;;18.94;37.44
78625;BME280;67944;0.000;0.000;2024-01-07T06:54:36;100494.34;;;18.93;37.98
78625;BME280;67944;0.000;0.000;2024-01-07T06:57:02;100497.81;;;18.94;37.49
78625;BME280;67944;0.000;0.000;2024-01-07T06:59:27;100499.63;;;18.93;37.19
78625;BME280;67944;0.000;0.000;2024-01-07T07:01:53;100504.09;;;18.93;37.65
78625;BME280;67944;0.000;0.000;2024-01-07T07:04:20;100507.72;;;18.92;38.19
78625;BME280;67944;0.000;0.000;2024-01-07T07:06:46;100505.91;;;18.92;37.90
78625;BME280;67944;0.000;0.000;2024-01-07T07:09:12;100509.38;;;18.93;37.55
78625;BME280;67944;0.000;0.000;2024-01-07T07:11:38;100505.25;;;18.90;37.53
78625;BME280;67944;0.000;0.000;2024-01-07T07:14:03;100514.97;;;18.90;37.77
78625;BME280;67944;0.000;0.000;2024-01-07T07:16:29;100525.53;;;18.90;38.11
78625;BME280;67944;0.000;0.000;2024-01-07T07:18:54;100525.53;;;18.90;37.80
78625;BME280;67944;0.000;0.000;2024-01-07T07:21:20;100526.53;;;18.89;37.79
78625;BME280;67944;0.000;0.000;2024-01-07T07:23:45;100532.63;;;18.89;37.30
78625;BME280;67944;0.000;0.000;2024-01-07T07:26:11;100534.44;;;18.89;37.66
78625;BME280;67944;0.000;0.000;2024-01-07T07:28:36;100541.53;;;18.88;37.35
78625;BME280;67944;0.000;0.000;2024-01-07T07:31:02;100542.34;;;18.89;38.07
78625;BME280;67944;0.000;0.000;2024-01-07T07:33:27;100544.16;;;18.88;37.74
78625;BME280;67944;0.000;0.000;2024-01-07T07:35:53;100551.25;;;18.88;37.85
78625;BME280;67944;0.000;0.000;2024-01-07T07:38:18;100556.53;;;18.88;37.79
78625;BME280;67944;0.000;0.000;2024-01-07T07:40:44;100557.53;;;18.87;37.48
78625;BME280;67944;0.000;0.000;2024-01-07T07:43:10;100564.44;;;18.88;37.48
78625;BME280;67944;0.000;0.000;2024-01-07T07:45:35;100560.16;;;18.87;37.91
78625;BME280;67944;0.000;0.000;2024-01-07T07:48:01;100562.81;;;18.87;37.53
78625;BME280;67944;0.000;0.000;2024-01-07T07:50:26;100560.31;;;18.85;37.41
78625;BME280;67944;0.000;0.000;2024-01-07T07:52:52;100569.06;;;18.86;37.30
78625;BME280;67944;0.000;0.000;2024-01-07T07:55:18;100565.44;;;18.87;37.83
78625;BME280;67944;0.000;0.000;2024-01-07T07:57:44;100576.00;;;18.87;37.19
78625;BME280;67944;0.000;0.000;2024-01-07T08:00:10;100585.72;;;18.86;37.59
78625;BME280;67944;0.000;0.000;2024-01-07T08:02:38;100587.53;;;18.86;37.96
78625;BME280;67944;0.000;0.000;2024-01-07T08:05:04;100581.44;;;18.85;37.80
78625;BME280;67944;0.000;0.000;2024-01-07T08:07:30;100588.72;;;18.83;37.41
78625;BME280;67944;0.000;0.000;2024-01-07T08:09:55;100602.53;;;18.85;37.36
78625;BME280;67944;0.000;0.000;2024-01-07T08:12:23;100605.38;;;18.83;37.36
78625;BME280;67944;0.000;0.000;2024-01-07T08:14:48;100609.47;;;18.86;37.82
78625;BME280;67944;0.000;0.000;2024-01-07T08:17:14;100602.53;;;18.85;37.77
78625;BME280;67944;0.000;0.000;2024-01-07T08:19:39;100612.28;;;18.84;37.79
78625;BME280;67944;0.000;0.000;2024-01-07T08:22:05;100607.81;;;18.85;37.32
78625;BME280;67944;0.000;0.000;2024-01-07T08:24:30;100617.56;;;18.84;37.35
78625;BME280;67944;0.000;0.000;2024-01-07T08:26:57;100614.91;;;18.84;37.34
78625;BME280;67944;0.000;0.000;2024-01-07T08:29:22;100617.56;;;18.84;37.44
78625;BME280;67944;0.000;0.000;2024-01-07T08:31:48;100626.28;;;18.85;37.49
78625;BME280;67944;0.000;0.000;2024-01-07T08:34:13;100624.66;;;18.84;37.73
78625;BME280;67944;0.000;0.000;2024-01-07T08:36:40;100633.38;;;18.84;37.65
78625;BME280;67944;0.000;0.000;2024-01-07T08:39:05;100627.28;;;18.84;37.81
78625;BME280;67944;0.000;0.000;2024-01-07T08:41:31;100633.38;;;18.84;37.34
78625;BME280;67944;0.000;0.000;2024-01-07T08:43:56;100640.47;;;18.84;37.33
78625;BME280;67944;0.000;0.000;2024-01-07T08:46:22;100637.03;;;18.83;37.41
78625;BME280;67944;0.000;0.000;2024-01-07T08:48:47;100649.22;;;18.84;37.44
78625;BME280;67944;0.000;0.000;2024-01-07T08:51:13;100649.22;;;18.84;37.56
78625;BME280;67944;0.000;0.000;2024-01-07T08:53:39;100652.88;;;18.83;37.40
78625;BME280;67944;0.000;0.000;2024-01-07T08:56:04;100659.78;;;18.84;37.29
78625;BME280;67944;0.000;0.000;2024-01-07T08:58:32;100654.50;;;18.84;37.31
78625;BME280;67944;0.000;0.000;2024-01-07T09:00:57;100658.94;;;18.84;37.29
78625;BME280;67944;0.000;0.000;2024-01-07T09:03:23;100662.41;;;18.84;37.47
78625;BME280;67944;0.000;0.000;2024-01-07T09:05:48;100659.78;;;18.84;37.73
78625;BME280;67944;0.000;0.000;2024-01-07T09:08:14;100663.44;;;18.83;37.23
78625;BME280;67944;0.000;0.000;2024-01-07T09:10:40;100668.72;;;18.83;37.25
78625;BME280;67944;0.000;0.000;2024-01-07T09:13:05;100671.50;;;18.82;37.69
78625;BME280;67944;0.000;0.000;2024-01-07T09:15:31;100674.16;;;18.82;37.65
78625;BME280;67944;0.000;0.000;2024-01-07T09:17:56;100682.06;;;18.82;37.60
78625;BME280;67944;0.000;0.000;2024-01-07T09:20:23;100681.56;;;18.78;37.48
78625;BME280;67944;0.000;0.000;2024-01-07T09:22:49;100689.31;;;18.80;37.21
78625;BME280;67944;0.000;0.000;2024-01-07T09:25:14;100691.94;;;18.80;37.24
78625;BME280;67944;0.000;0.000;2024-01-07T09:27:40;100696.41;;;18.79;37.21
78625;BME280;67944;0.000;0.000;2024-01-07T09:30:05;100695.56;;;18.79;37.38
78625;BME280;67944;0.000;0.000;2024-01-07T09:32:31;100703.50;;;18.79;37.25
78625;BME280;67944;0.000;0.000;2024-01-07T09:34:57;100711.25;;;18.80;37.35
78625;BME280;67944;0.000;0.000;2024-01-07T09:37:23;100705.16;;;18.80;37.67
78625;BME280;67944;0.000;0.000;2024-01-07T09:39:48;100705.97;;;18.80;37.79
78625;BME280;67944;0.000;0.000;2024-01-07T09:42:18;100716.53;;;18.80;37.74
78625;BME280;67944;0.000;0.000;2024-01-07T09:44:44;100714.88;;;18.79;37.64
78625;BME280;67944;0.000;0.000;2024-01-07T09:47:13;100718.34;;;18.80;37.84
78625;BME280;67944;0.000;0.000;2024-01-07T09:49:43;100720.16;;;18.79;37.59
78625;BME280;67944;0.000;0.000;2024-01-07T09:52:10;100716.69;;;18.79;36.98
78625;BME280;67944;0.000;0.000;2024-01-07T09:54:37;100730.69;;;18.79;37.65
78625;BME280;67944;0.000;0.000;2024-01-07T09:57:05;100723.78;;;18.78;36.91
78625;BME280;67944;0.000;0.000;2024-01-07T09:59:32;100725.44;;;18.79;37.38
78625;BME280;67944;0.000;0.000;2024-01-07T10:01:59;100730.03;;;18.77;37.66
78625;BME280;67944;0.000;0.000;2024-01-07T10:04:25;100730.88;;;18.78;37.04
78625;BME280;67944;0.000;0.000;2024-01-07T10:06:51;100739.75;;;18.77;37.17
78625;BME280;67944;0.000;0.000;2024-01-07T10:09:19;100745.03;;;18.77;37.59
78625;BME280;67944;0.000;0.000;2024-01-07T10:11:47;100734.47;;;18.77;37.07
78625;BME280;67944;0.000;0.000;2024-01-07T10:14:13;100731.03;;;18.76;37.26
78625;BME280;67944;0.000;0.000;2024-01-07T10:16:39;100739.75;;;18.77;37.51
78625;BME280;67944;0.000;0.000;2024-01-07T10:19:04;100739.75;;;18.77;37.22
78625;BME280;67944;0.000;0.000;2024-01-07T10:21:30;100731.03;;;18.76;37.11
78625;BME280;67944;0.000;0.000;2024-01-07T10:24:09;100744.22;;;18.76;36.79
78625;BME280;67944;0.000;0.000;2024-01-07T10:26:39;100743.22;;;18.77;37.30
78625;BME280;67944;0.000;0.000;2024-01-07T10:29:06;100744.88;;;18.78;36.97
78625;BME280;67944;0.000;0.000;2024-01-07T10:31:33;100744.88;;;18.78;37.05
78625;BME280;67944;0.000;0.000;2024-01-07T10:33:59;100742.25;;;18.78;37.19
78625;BME280;67944;0.000;0.000;2024-01-07T10:36:25;100734.31;;;18.78;37.16
78625;BME280;67944;0.000;0.000;2024-01-07T10:38:51;100743.91;;;18.79;37.51
78625;BME280;67944;0.000;0.000;2024-01-07T10:41:20;100741.25;;;18.79;37.17
78625;BME280;67944;0.000;0.000;2024-01-07T10:43:49;100746.53;;;18.79;36.71
78625;BME280;67944;0.000;0.000;2024-01-07T10:46:15;100756.09;;;18.80;37.06
78625;BME280;67944;0.000;0.000;2024-01-07T10:48:53;100743.91;;;18.79;37.04
78625;BME280;67944;0.000;0.000;2024-01-07T10:51:21;100755.13;;;18.81;37.63
78625;BME280;67944;0.000;0.000;2024-01-07T10:53:52;100753.47;;;18.80;37.27
78625;BME280;67944;0.000;0.000;2024-01-07T10:56:23;100755.94;;;18.82;37.46
78625;BME280;67944;0.000;0.000;2024-01-07T10:58:52;100764.69;;;18.82;37.10
78625;BME280;67944;0.000;0.000;2024-01-07T11:01:19;100762.88;;;18.83;36.86
78625;BME280;67944;0.000;0.000;2024-01-07T11:03:55;100762.88;;;18.83;37.07
78625;BME280;67944;0.000;0.000;2024-01-07T11:06:26;100762.03;;;18.82;36.78
78625;BME280;67944;0.000;0.000;2024-01-07T11:09:06;100760.38;;;18.81;36.80
78625;BME280;67944;0.000;0.000;2024-01-07T11:11:39;100770.13;;;18.81;37.05
78625;BME280;67944;0.000;0.000;2024-01-07T11:14:38;100768.31;;;18.81;37.18
78625;BME280;67944;0.000;0.000;2024-01-07T11:17:06;100762.38;;;18.79;37.15
78625;BME280;67944;0.000;0.000;2024-01-07T11:19:32;100766.97;;;18.77;36.93
78625;BME280;67944;0.000;0.000;2024-01-07T11:22:26;100761.69;;;18.77;37.27
78625;BME280;67944;0.000;0.000;2024-01-07T11:25:27;100766.16;;;18.77;37.31
78625;BME280;67944;0.000;0.000;2024-01-07T11:27:53;100762.69;;;18.76;36.88
78625;BME280;67944;0.000;0.000;2024-01-07T11:30:19;100767.97;;;18.76;37.19
78625;BME280;67944;0.000;0.000;2024-01-07T11:32:45;100770.75;;;18.75;36.93
78625;BME280;67944;0.000;0.000;2024-01-07T11:35:12;100768.94;;;18.75;37.10
78625;BME280;67944;0.000;0.000;2024-01-07T11:37:38;100766.31;;;18.75;36.91
78625;BME280;67944;0.000;0.000;2024-01-07T11:40:05;100752.13;;;18.76;36.68
78625;BME280;67944;0.000;0.000;2024-01-07T11:42:31;100757.41;;;18.76;36.46
78625;BME280;67944;0.000;0.000;2024-01-07T11:44:57;100752.13;;;18.76;36.86
78625;BME280;67944;0.000;0.000;2024-01-07T11:47:24;100756.41;;;18.77;36.87
78625;BME280;67944;0.000;0.000;2024-01-07T11:49:51;100759.88;;;18.78;37.00
78625;BME280;67944;0.000;0.000;2024-01-07T11:52:17;100755.75;;;18.75;36.85
78625;BME280;67944;0.000;0.000;2024-01-07T11:54:43;100762.53;;;18.78;36.68
78625;BME280;67944;0.000;0.000;2024-01-07T11:57:10;100760.72;;;18.78;37.18
78625;BME280;67944;0.000;0.000;2024-01-07T11:59:36;100758.06;;;18.78;37.05
78625;BME280;67944;0.000;0.000;2024-01-07T12:02:03;100760.72;;;18.78;36.52
78625;BME280;67944;0.000;0.000;2024-01-07T12:04:32;100766.00;;;18.78;36.70
78625;BME280;67944;0.000;0.000;2024-01-07T12:06:59;100764.34;;;18.77;37.10
78625;BME280;67944;0.000;0.000;2024-01-07T12:09:27;100772.09;;;18.79;36.44
78625;BME280;67944;0.000;0.000;2024-01-07T12:11:53;100775.72;;;18.78;36.91
78625;BME280;67944;0.000;0.000;2024-01-07T12:14:20;100773.91;;;18.78;36.90
78625;BME280;67944;0.000;0.000;2024-01-07T12:16:46;100777.38;;;18.79;36.35
78625;BME280;67944;0.000;0.000;2024-01-07T12:19:12;100779.19;;;18.78;36.85
78625;BME280;67944;0.000;0.000;2024-01-07T12:21:37;100777.38;;;18.79;36.95
78625;BME280;67944;0.000;0.000;2024-01-07T12:24:04;100785.28;;;18.79;36.86
78625;BME280;67944;0.000;0.000;2024-01-07T12:26:30;100785.44;;;18.77;36.78
78625;BME280;67944;0.000;0.000;2024-01-07T12:29:00;100791.53;;;18.78;36.51
78625;BME280;67944;0.000;0.000;2024-01-07T12:31:32;100792.38;;;18.78;36.91
78625;BME280;67944;0.000;0.000;2024-01-07T12:33:58;100787.09;;;18.78;36.55
78625;BME280;67944;0.000;0.000;2024-01-07T12:36:25;100781.81;;;18.78;36.49
78625;BME280;67944;0.000;0.000;2024-01-07T12:38:52;100786.13;;;18.79;36.44
78625;BME280;67944;0.000;0.000;2024-01-07T12:41:20;100788.75;;;18.79;36.47
78625;BME280;67944;0.000;0.000;2024-01-07T12:43:46;100788.75;;;18.79;36.51
78625;BME280;67944;0.000;0.000;2024-01-07T12:46:12;100792.38;;;18.78;36.56
78625;BME280;67944;0.000;0.000;2024-01-07T12:48:38;100793.34;;;18.77;36.70
78625;BME280;67944;0.000;0.000;2024-01-07T12:51:03;100798.63;;;18.77;36.31
78625;BME280;67944;0.000;0.000;2024-01-07T12:53:29;100795.16;;;18.77;36.31
78625;BME280;67944;0.000;0.000;2024-01-07T12:55:54;100798.63;;;18.77;36.26